Time;durP1;ratioP1;P1;durP2;ratioP2;P2;SDS_P1;SDS_P2;PMS_P1;PMS_P2;Temp;Humidity;BMP_temperature;BMP_pressure;BME280_temperature;BME280_humidity;BME280_pressure;Samples;Min_cycle;Max_cycle;Signal;HPM_P1;HPM_P2
2023/03/20 00:01:52;;;;;;;14.63;10.00;;;9.00;99.90;;;;;;5115440;27;20486;-80
2023/03/20 00:04:18;;;;;;;13.88;9.38;;;9.00;99.90;;;;;;5099276;27;20055;-79
2023/03/20 00:06:43;;;;;;;14.07;9.68;;;9.00;99.90;;;;;;5116051;27;20138;-79
2023/03/20 00:09:11;;;;;;;13.70;9.93;;;9.00;99.90;;;;;;5116523;27;20043;-80
2023/03/20 00:11:47;;;;;;;16.63;11.38;;;9.10;99.90;;;;;;5115966;27;20423;-80
2023/03/20 00:14:15;;;;;;;18.02;11.65;;;9.00;99.90;;;;;;5099723;27;20035;-80
2023/03/20 00:16:43;;;;;;;19.80;12.63;;;9.00;99.90;;;;;;5134185;27;20034;-79
2023/03/20 00:19:22;;;;;;;19.45;13.02;;;8.90;99.90;;;;;;5116451;27;20047;-79
2023/03/20 00:21:48;;;;;;;19.75;12.65;;;8.90;99.90;;;;;;5115780;27;20039;-79
2023/03/20 00:24:15;;;;;;;18.85;12.68;;;8.90;99.90;;;;;;5115973;27;20050;-79
2023/03/20 00:26:42;;;;;;;18.98;12.90;;;8.90;99.90;;;;;;5095307;28;20122;-80
2023/03/20 00:29:25;;;;;;;18.73;12.50;;;8.90;99.90;;;;;;5110748;27;20043;-78
2023/03/20 00:31:51;;;;;;;19.70;12.88;;;8.90;99.90;;;;;;5115241;27;20107;-79
2023/03/20 00:34:18;;;;;;;18.90;12.45;;;9.00;99.90;;;;;;5115777;27;20039;-78
2023/03/20 00:36:44;;;;;;;21.98;14.38;;;9.00;99.90;;;;;;5098815;27;20047;-79
2023/03/20 00:39:10;;;;;;;24.13;14.63;;;9.00;99.90;;;;;;5096127;28;20062;-80
2023/03/20 00:41:35;;;;;;;23.40;13.98;;;8.90;99.90;;;;;;5115039;27;20081;-80
2023/03/20 00:44:20;;;;;;;24.10;15.00;;;8.90;99.90;;;;;;5115885;27;20451;-79
2023/03/20 00:46:50;;;;;;;23.10;14.68;;;8.90;99.90;;;;;;5133049;27;20051;-78
2023/03/20 00:49:17;;;;;;;23.63;15.10;;;8.90;99.90;;;;;;5106406;27;20043;-79
2023/03/20 00:51:43;;;;;;;26.48;15.07;;;8.90;99.90;;;;;;5096066;28;20087;-80
2023/03/20 00:54:14;;;;;;;25.95;14.45;;;8.90;99.90;;;;;;5106562;27;20081;-80
2023/03/20 00:56:44;;;;;;;24.52;14.73;;;8.90;99.90;;;;;;5101841;28;20048;-80
2023/03/20 00:59:18;;;;;;;23.20;13.52;;;8.90;99.90;;;;;;5115837;27;20139;-80
2023/03/20 01:01:44;;;;;;;21.83;14.25;;;8.90;99.90;;;;;;5115551;28;20107;-79
2023/03/20 01:04:16;;;;;;;22.75;13.85;;;8.80;99.90;;;;;;5119039;28;20043;-80
2023/03/20 01:06:42;;;;;;;24.33;14.30;;;8.80;99.90;;;;;;5115205;28;20059;-79
2023/03/20 01:09:08;;;;;;;23.90;14.02;;;8.80;99.90;;;;;;5134053;28;20043;-80
2023/03/20 01:11:34;;;;;;;22.98;13.65;;;8.80;99.90;;;;;;5115148;28;20054;-80
2023/03/20 01:14:02;;;;;;;24.05;14.23;;;8.80;99.90;;;;;;5115097;28;20092;-80
2023/03/20 01:16:28;;;;;;;23.80;14.73;;;8.80;99.90;;;;;;5096572;28;20039;-80
2023/03/20 01:18:54;;;;;;;29.38;15.35;;;8.80;99.90;;;;;;5115687;28;20053;-80
2023/03/20 01:21:20;;;;;;;26.40;15.45;;;8.80;99.90;;;;;;5115009;28;20474;-78
2023/03/20 01:23:47;;;;;;;27.92;15.75;;;8.80;99.90;;;;;;5081152;28;20053;-80
2023/03/20 01:26:33;;;;;;;29.63;16.55;;;8.70;99.90;;;;;;5111596;28;20085;-80
2023/03/20 01:28:59;;;;;;;35.47;17.75;;;8.70;99.90;;;;;;5115794;28;20049;-79
2023/03/20 01:31:25;;;;;;;32.78;17.25;;;8.70;99.90;;;;;;5114600;28;20110;-82
2023/03/20 01:33:51;;;;;;;31.15;17.35;;;8.70;99.90;;;;;;5134007;28;20068;-80
2023/03/20 01:36:20;;;;;;;32.55;15.95;;;8.60;99.90;;;;;;5098083;28;20035;-81
2023/03/20 01:38:51;;;;;;;30.77;16.38;;;8.60;99.90;;;;;;5115311;28;20118;-81
2023/03/20 01:41:17;;;;;;;32.03;15.02;;;8.60;99.90;;;;;;5115147;28;20119;-80
2023/03/20 01:43:45;;;;;;;28.15;15.63;;;8.60;99.90;;;;;;5123926;28;20446;-78
2023/03/20 01:46:10;;;;;;;27.20;14.35;;;8.60;99.90;;;;;;5110276;28;20054;-80
2023/03/20 01:49:28;;;;;;;28.15;14.63;;;8.60;99.90;;;;;;5114858;28;20370;-81
2023/03/20 01:51:56;;;;;;;28.95;13.35;;;8.60;99.90;;;;;;5119202;28;20047;-80
2023/03/20 01:54:38;;;;;;;23.98;12.52;;;8.60;99.90;;;;;;5115351;28;20459;-80
2023/03/20 01:57:30;;;;;;;23.38;12.20;;;8.50;99.90;;;;;;5112874;28;20043;-80
2023/03/20 02:00:09;;;;;;;18.75;9.90;;;8.50;99.90;;;;;;5112150;28;20055;-81
2023/03/20 02:02:37;;;;;;;20.60;10.15;;;8.50;99.90;;;;;;5114783;28;20082;-80
2023/03/20 02:05:07;;;;;;;20.63;9.13;;;8.50;99.90;;;;;;5114914;28;20082;-80
2023/03/20 02:07:35;;;;;;;16.30;8.20;;;8.50;99.90;;;;;;5096878;28;20049;-80
2023/03/20 02:10:08;;;;;;;16.42;8.18;;;8.50;99.90;;;;;;5115193;28;20035;-80
2023/03/20 02:12:35;;;;;;;15.05;7.68;;;8.50;99.90;;;;;;5086610;28;20087;-80
2023/03/20 02:15:02;;;;;;;12.60;7.05;;;8.50;99.90;;;;;;5084364;27;20051;-80
2023/03/20 02:17:27;;;;;;;15.02;7.70;;;8.50;99.90;;;;;;5118188;27;20043;-80
2023/03/20 02:20:13;;;;;;;13.02;7.07;;;8.50;99.90;;;;;;5118699;27;20042;-80
2023/03/20 02:22:57;;;;;;;13.63;7.40;;;8.40;99.90;;;;;;5136176;27;20370;-79
2023/03/20 02:25:50;;;;;;;14.50;7.53;;;8.40;99.90;;;;;;5104873;27;20047;-78
2023/03/20 02:28:40;;;;;;;15.93;8.25;;;8.40;99.90;;;;;;5118453;27;20122;-79
2023/03/20 02:31:33;;;;;;;13.57;7.88;;;8.40;99.90;;;;;;5118282;27;20486;-80
2023/03/20 02:34:21;;;;;;;16.92;8.55;;;8.40;99.90;;;;;;5118516;27;20375;-80
2023/03/20 02:37:14;;;;;;;17.95;9.15;;;8.40;99.90;;;;;;5117473;27;20112;-80
2023/03/20 02:40:14;;;;;;;16.65;8.63;;;8.30;99.90;;;;;;5118014;27;20486;-80
2023/03/20 02:42:46;;;;;;;17.98;9.35;;;8.40;99.90;;;;;;5117931;27;20043;-79
2023/03/20 02:45:17;;;;;;;15.55;8.82;;;8.30;99.90;;;;;;5114438;27;20043;-79
2023/03/20 02:48:13;;;;;;;18.67;10.35;;;8.30;99.90;;;;;;5136124;27;20051;-79
2023/03/20 02:50:44;;;;;;;17.45;10.15;;;8.30;99.90;;;;;;5104395;27;20405;-78
2023/03/20 02:53:19;;;;;;;18.00;10.15;;;8.30;99.90;;;;;;5129373;27;20079;-79
2023/03/20 02:56:11;;;;;;;19.40;10.65;;;8.30;99.90;;;;;;5116025;27;20474;-77
2023/03/20 02:59:03;;;;;;;19.77;11.95;;;8.40;99.90;;;;;;5108517;27;20099;-79
2023/03/20 03:01:41;;;;;;;19.60;10.38;;;8.40;99.90;;;;;;5128162;27;20047;-80
2023/03/20 03:04:15;;;;;;;21.00;12.38;;;8.40;99.90;;;;;;5122887;27;20043;-80
2023/03/20 03:06:43;;;;;;;25.23;13.88;;;8.30;99.90;;;;;;5107768;28;20604;-79
2023/03/20 03:09:18;;;;;;;25.73;13.20;;;8.30;99.90;;;;;;5113049;27;20114;-80
2023/03/20 03:11:49;;;;;;;23.45;12.88;;;8.30;99.90;;;;;;5103283;28;20424;-81
2023/03/20 03:15:10;;;;;;;24.63;13.18;;;8.30;99.90;;;;;;5104225;27;20050;-80
2023/03/20 03:17:37;;;;;;;22.48;12.98;;;8.30;99.90;;;;;;5128723;27;20058;-80
2023/03/20 03:20:13;;;;;;;20.98;12.93;;;8.30;99.90;;;;;;5088003;28;20075;-80
2023/03/20 03:22:39;;;;;;;23.92;13.50;;;8.30;99.90;;;;;;5134822;27;20050;-80
2023/03/20 03:25:05;;;;;;;24.58;13.93;;;8.20;99.90;;;;;;5117579;27;20053;-80
2023/03/20 03:27:44;;;;;;;23.92;13.90;;;8.30;99.90;;;;;;5100165;27;20416;-80
2023/03/20 03:30:19;;;;;;;23.30;13.65;;;8.20;99.90;;;;;;5117689;27;20075;-80
2023/03/20 03:32:48;;;;;;;25.67;14.68;;;8.20;99.90;;;;;;5088361;27;20039;-79
2023/03/20 03:35:20;;;;;;;27.73;15.02;;;8.20;99.90;;;;;;5135276;27;20050;-78
2023/03/20 03:37:49;;;;;;;;;;;8.20;99.90;;;;;;5117247;27;20039;-80
2023/03/20 03:40:21;;;;;;;27.02;15.50;;;8.10;99.90;;;;;;5116993;27;20355;-80
2023/03/20 03:42:57;;;;;;;27.52;15.45;;;8.20;99.90;;;;;;5117104;27;20043;-79
2023/03/20 03:45:43;;;;;;;29.08;17.60;;;8.20;99.90;;;;;;5116365;27;20099;-79
2023/03/20 03:48:21;;;;;;;26.73;16.60;;;8.20;99.90;;;;;;5116399;27;20076;-79
2023/03/20 03:51:04;;;;;;;26.42;16.52;;;8.10;99.90;;;;;;5135227;27;20050;-79
2023/03/20 03:53:42;;;;;;;27.85;16.80;;;8.20;99.90;;;;;;5116368;27;20072;-80
2023/03/20 03:56:12;;;;;;;27.67;17.65;;;8.20;99.90;;;;;;5116607;27;20051;-79
2023/03/20 03:58:48;;;;;;;26.27;16.67;;;8.10;99.90;;;;;;5134802;27;20115;-79
2023/03/20 04:01:16;;;;;;;26.52;16.95;;;8.10;99.90;;;;;;5116780;27;20455;-79
2023/03/20 04:03:48;;;;;;;27.38;17.27;;;8.20;99.90;;;;;;5101648;27;20043;-79
2023/03/20 04:06:15;;;;;;;26.98;17.27;;;8.10;99.90;;;;;;5106555;28;20044;-79
2023/03/20 04:08:42;;;;;;;27.15;17.00;;;8.10;99.90;;;;;;5088058;28;20487;-80
2023/03/20 04:11:16;;;;;;;26.95;15.48;;;8.10;99.90;;;;;;5113239;28;20043;-79
2023/03/20 04:13:42;;;;;;;28.63;16.70;;;8.10;99.90;;;;;;5101558;28;20140;-80
2023/03/20 04:16:15;;;;;;;23.92;16.25;;;8.10;99.90;;;;;;5110021;28;20471;-80
2023/03/20 04:18:41;;;;;;;26.13;16.00;;;8.10;99.90;;;;;;5112593;28;20051;-79
2023/03/20 04:21:08;;;;;;;28.33;16.55;;;8.10;99.90;;;;;;5112220;28;20061;-79
2023/03/20 04:23:34;;;;;;;24.40;14.93;;;8.10;99.90;;;;;;5113055;28;20104;-79
2023/03/20 04:26:01;;;;;;;24.45;14.25;;;8.10;99.90;;;;;;5112622;28;20050;-80
2023/03/20 04:28:26;;;;;;;23.35;14.05;;;8.10;99.90;;;;;;5096020;28;20110;-80
2023/03/20 04:30:54;;;;;;;22.73;13.25;;;8.10;99.90;;;;;;5095749;28;20127;-80
2023/03/20 04:33:20;;;;;;;23.33;13.02;;;8.00;99.90;;;;;;5111946;28;20052;-80
2023/03/20 04:35:46;;;;;;;24.20;12.88;;;8.00;99.90;;;;;;5112367;28;20119;-79
2023/03/20 04:38:12;;;;;;;21.20;11.82;;;8.00;99.90;;;;;;5095694;28;20122;-80
2023/03/20 04:40:38;;;;;;;22.98;13.10;;;8.00;99.90;;;;;;5086853;28;20059;-80
2023/03/20 04:43:04;;;;;;;22.52;12.75;;;8.00;99.90;;;;;;5107549;28;20471;-80
2023/03/20 04:45:30;;;;;;;20.58;12.18;;;7.90;99.90;;;;;;5112753;28;20039;-80
2023/03/20 04:47:56;;;;;;;20.95;12.73;;;8.00;99.90;;;;;;5112248;28;20047;-80
2023/03/20 04:50:22;;;;;;;19.83;12.35;;;7.90;99.90;;;;;;5112171;28;20085;-80
2023/03/20 04:52:47;;;;;;;20.25;12.30;;;7.90;99.90;;;;;;5112498;28;20383;-80
2023/03/20 04:55:13;;;;;;;19.30;11.40;;;7.90;99.90;;;;;;5112353;28;20055;-80
2023/03/20 04:57:39;;;;;;;20.17;11.35;;;7.90;99.90;;;;;;5104121;28;20043;-80
2023/03/20 05:00:06;;;;;;;17.92;11.57;;;7.90;99.90;;;;;;5087064;28;20046;-80
2023/03/20 05:02:32;;;;;;;19.67;11.35;;;7.90;99.90;;;;;;5102684;28;20103;-80
2023/03/20 05:04:57;;;;;;;22.15;11.50;;;7.90;99.90;;;;;;5095051;28;20483;-80
2023/03/20 05:07:23;;;;;;;17.60;10.90;;;7.90;99.90;;;;;;5084053;28;20052;-80
2023/03/20 05:09:49;;;;;;;17.98;10.75;;;7.90;99.90;;;;;;5105536;28;20058;-79
2023/03/20 05:12:15;;;;;;;20.30;10.25;;;7.80;99.90;;;;;;5092738;28;20382;-80
2023/03/20 05:14:41;;;;;;;17.73;10.82;;;7.80;99.90;;;;;;5078534;28;20536;-80
2023/03/20 05:17:07;;;;;;;18.55;10.52;;;7.80;99.90;;;;;;5093236;28;20119;-80
2023/03/20 05:19:33;;;;;;;20.98;11.18;;;7.90;99.90;;;;;;5077129;28;20039;-79
2023/03/20 05:22:00;;;;;;;18.17;11.55;;;7.80;99.90;;;;;;5081037;28;20036;-80
2023/03/20 05:24:27;;;;;;;18.13;11.10;;;7.80;99.90;;;;;;5082056;28;20055;-80
2023/03/20 05:26:53;;;;;;;18.73;11.68;;;7.80;99.90;;;;;;5076618;28;20459;-80
2023/03/20 05:29:20;;;;;;;19.10;11.50;;;7.80;99.90;;;;;;5057682;28;20048;-80
2023/03/20 05:31:45;;;;;;;19.00;11.65;;;7.80;99.90;;;;;;5090429;28;20055;-79
2023/03/20 05:34:11;;;;;;;19.10;11.60;;;7.80;99.90;;;;;;5085020;28;20051;-80
2023/03/20 05:36:37;;;;;;;20.77;12.07;;;7.80;99.90;;;;;;5077953;28;20040;-80
2023/03/20 05:39:03;;;;;;;20.42;12.20;;;7.80;99.90;;;;;;5083623;28;20044;-80
2023/03/20 05:41:29;;;;;;;18.85;11.98;;;7.80;99.90;;;;;;5103907;28;20040;-80
2023/03/20 05:43:55;;;;;;;19.23;12.52;;;7.80;99.90;;;;;;5082718;28;20077;-80
2023/03/20 05:46:21;;;;;;;22.10;12.48;;;7.80;99.90;;;;;;5112691;28;20046;-80
2023/03/20 05:48:47;;;;;;;20.58;12.30;;;7.80;99.90;;;;;;5081771;28;20040;-80
2023/03/20 05:51:13;;;;;;;21.15;13.02;;;7.80;99.90;;;;;;5089097;28;20123;-81
2023/03/20 05:53:39;;;;;;;20.80;13.82;;;7.80;99.90;;;;;;5097550;28;20043;-79
2023/03/20 05:56:05;;;;;;;20.90;12.57;;;7.80;99.90;;;;;;5097837;28;20356;-80
2023/03/20 05:58:31;;;;;;;21.38;14.07;;;7.80;99.90;;;;;;5094956;28;20097;-81
2023/03/20 06:00:57;;;;;;;19.52;13.25;;;7.90;99.90;;;;;;5084145;28;20162;-79
2023/03/20 06:03:23;;;;;;;20.33;13.35;;;7.80;99.90;;;;;;5071180;28;20054;-80
2023/03/20 06:05:49;;;;;;;22.25;14.50;;;7.80;99.90;;;;;;5108591;28;20067;-81
2023/03/20 06:08:15;;;;;;;22.08;14.50;;;7.90;99.90;;;;;;5074937;28;20047;-80
2023/03/20 06:10:40;;;;;;;21.30;15.25;;;7.90;99.90;;;;;;5097348;28;20041;-78
2023/03/20 06:13:06;;;;;;;21.33;15.38;;;7.80;99.90;;;;;;5101594;28;20074;-78
2023/03/20 06:15:32;;;;;;;21.23;14.75;;;7.80;99.90;;;;;;5099807;28;20104;-79
2023/03/20 06:17:58;;;;;;;21.45;14.70;;;7.90;99.90;;;;;;5080389;28;20043;-80
2023/03/20 06:20:24;;;;;;;20.88;15.27;;;7.90;99.90;;;;;;5099752;28;20066;-81
2023/03/20 06:22:50;;;;;;;23.00;15.57;;;7.90;99.90;;;;;;5063532;28;20388;-81
2023/03/20 06:25:16;;;;;;;19.50;13.50;;;7.90;99.90;;;;;;5100495;28;20190;-79
2023/03/20 06:27:42;;;;;;;19.70;14.40;;;7.90;99.90;;;;;;5075403;28;20044;-79
2023/03/20 06:30:09;;;;;;;19.80;14.63;;;7.90;99.90;;;;;;5077511;28;20097;-80
2023/03/20 06:32:35;;;;;;;19.90;13.73;;;7.90;99.90;;;;;;5086102;28;20119;-80
2023/03/20 06:35:00;;;;;;;19.98;14.13;;;7.90;99.90;;;;;;5089027;28;20166;-80
2023/03/20 06:37:26;;;;;;;19.55;14.07;;;8.00;99.90;;;;;;5092571;28;20478;-80
2023/03/20 06:39:52;;;;;;;19.77;13.68;;;8.00;99.90;;;;;;5084268;28;20043;-81
2023/03/20 06:42:18;;;;;;;18.80;13.60;;;8.00;99.90;;;;;;5091823;28;20563;-80
2023/03/20 06:44:43;;;;;;;21.17;14.60;;;8.00;99.90;;;;;;5069146;28;20052;-80
2023/03/20 06:47:09;;;;;;;20.67;13.98;;;8.10;99.90;;;;;;5092507;28;20047;-80
2023/03/20 06:49:35;;;;;;;19.80;13.57;;;8.10;99.90;;;;;;5051868;28;20044;-80
2023/03/20 06:52:01;;;;;;;19.02;13.25;;;8.10;99.90;;;;;;5060384;28;20051;-79
2023/03/20 06:54:27;;;;;;;17.48;12.95;;;8.10;99.90;;;;;;5097145;28;20048;-79
2023/03/20 06:56:53;;;;;;;19.95;12.93;;;8.20;99.90;;;;;;5093966;28;20044;-80
2023/03/20 06:59:19;;;;;;;18.30;12.23;;;8.20;99.90;;;;;;5095011;28;20125;-80
2023/03/20 07:01:44;;;;;;;17.73;12.10;;;8.30;99.90;;;;;;5072716;28;20052;-79
2023/03/20 07:04:10;;;;;;;17.77;11.65;;;8.20;99.90;;;;;;5087197;28;20383;-79
2023/03/20 07:06:36;;;;;;;20.75;12.38;;;8.40;99.90;;;;;;5134843;27;20047;-79
2023/03/20 07:09:03;;;;;;;17.88;11.75;;;8.30;99.90;;;;;;5117383;27;20039;-79
2023/03/20 07:11:29;;;;;;;17.92;11.85;;;8.40;99.90;;;;;;5104318;27;20043;-80
2023/03/20 07:13:55;;;;;;;16.58;11.43;;;8.40;99.90;;;;;;5088094;28;20052;-80
2023/03/20 07:16:21;;;;;;;17.85;11.82;;;8.40;99.90;;;;;;5099332;27;20039;-81
2023/03/20 07:18:47;;;;;;;16.35;11.18;;;8.40;99.90;;;;;;5089732;28;20051;-80
2023/03/20 07:21:19;;;;;;;18.33;11.32;;;8.40;99.90;;;;;;5132100;27;21396;-80
2023/03/20 07:23:44;;;;;;;18.17;11.55;;;8.40;99.90;;;;;;5117482;27;20115;-80
2023/03/20 07:26:11;;;;;;;20.73;10.88;;;8.40;99.90;;;;;;5116961;27;20471;-80
2023/03/20 07:28:37;;;;;;;16.63;10.50;;;8.40;99.90;;;;;;5080633;28;20123;-79
2023/03/20 07:31:03;;;;;;;15.27;10.52;;;8.50;99.90;;;;;;5097050;28;20135;-79
2023/03/20 07:33:28;;;;;;;15.27;9.75;;;8.50;99.90;;;;;;5116624;27;20118;-80
2023/03/20 07:35:54;;;;;;;16.80;10.07;;;8.50;99.90;;;;;;5108634;27;20039;-80
2023/03/20 07:38:21;;;;;;;18.88;10.73;;;8.50;99.90;;;;;;5116952;27;20050;-80
2023/03/20 07:40:47;;;;;;;15.73;9.48;;;8.50;99.90;;;;;;5117203;27;20039;-80
2023/03/20 07:43:15;;;;;;;16.98;9.52;;;8.50;99.90;;;;;;5099718;27;20035;-79
2023/03/20 07:45:40;;;;;;;14.45;9.93;;;8.60;99.90;;;;;;5116406;27;20126;-79
2023/03/20 07:48:06;;;;;;;17.85;9.57;;;8.60;99.90;;;;;;5134377;27;20453;-80
2023/03/20 07:50:32;;;;;;;17.77;10.10;;;8.70;99.90;;;;;;5116637;27;20455;-79
2023/03/20 07:52:58;;;;;;;15.30;9.80;;;8.80;99.90;;;;;;5116693;27;20462;-80
2023/03/20 07:55:24;;;;;;;17.17;9.70;;;8.80;99.90;;;;;;5116416;27;20054;-80
2023/03/20 07:57:50;;;;;;;19.52;9.90;;;8.90;99.90;;;;;;5133326;27;20046;-78
2023/03/20 08:00:16;;;;;;;18.40;10.25;;;8.90;99.90;;;;;;5095849;27;20036;-80
2023/03/20 08:02:42;;;;;;;16.77;9.75;;;8.90;99.90;;;;;;5111070;27;20104;-80
2023/03/20 08:05:08;;;;;;;15.30;9.07;;;8.90;99.90;;;;;;5116726;27;20105;-80
2023/03/20 08:07:34;;;;;;;16.83;9.98;;;9.00;99.90;;;;;;5111834;27;20059;-79
2023/03/20 08:10:02;;;;;;;16.13;9.77;;;9.00;99.90;;;;;;5114743;27;20049;-80
2023/03/20 08:12:28;;;;;;;17.50;10.07;;;9.10;99.90;;;;;;5116729;27;20047;-78
2023/03/20 08:14:54;;;;;;;17.58;9.70;;;9.10;99.90;;;;;;5110337;27;20482;-80
2023/03/20 08:17:20;;;;;;;17.75;9.20;;;9.10;99.90;;;;;;5112685;27;20050;-80
2023/03/20 08:19:46;;;;;;;15.52;10.27;;;9.20;99.90;;;;;;5132663;27;20054;-80
2023/03/20 08:22:12;;;;;;;16.48;9.40;;;9.20;99.90;;;;;;5095989;27;20039;-80
2023/03/20 08:24:39;;;;;;;16.38;9.75;;;9.30;99.90;;;;;;5115180;27;20051;-80
2023/03/20 08:27:05;;;;;;;18.17;10.35;;;9.30;99.90;;;;;;5104338;27;20423;-80
2023/03/20 08:29:30;;;;;;;15.73;10.13;;;9.40;99.90;;;;;;5101641;27;20074;-79
2023/03/20 08:31:56;;;;;;;15.35;9.95;;;9.40;99.90;;;;;;5116338;27;20047;-80
2023/03/20 08:34:22;;;;;;;15.77;10.07;;;9.40;99.90;;;;;;5098496;28;20047;-80
2023/03/20 08:36:48;;;;;;;16.25;9.82;;;9.50;99.90;;;;;;5101027;28;20043;-80
2023/03/20 08:39:14;;;;;;;18.77;10.75;;;9.40;99.90;;;;;;5120114;27;20143;-80
2023/03/20 08:41:42;;;;;;;19.13;11.00;;;9.40;99.90;;;;;;5102234;27;20040;-79
2023/03/20 08:44:08;;;;;;;16.15;10.40;;;9.50;99.90;;;;;;5099816;27;21467;-79
2023/03/20 08:46:34;;;;;;;18.88;10.63;;;9.50;99.90;;;;;;5101332;27;20040;-79
2023/03/20 08:48:59;;;;;;;16.70;10.00;;;9.60;99.90;;;;;;5097825;28;20040;-80
2023/03/20 08:51:26;;;;;;;18.20;10.93;;;9.70;99.90;;;;;;5083181;28;20051;-78
2023/03/20 08:53:52;;;;;;;16.73;10.55;;;9.80;99.90;;;;;;5108586;28;20039;-78
2023/03/20 08:56:18;;;;;;;21.20;10.65;;;9.80;99.90;;;;;;5096985;28;20104;-79
2023/03/20 08:58:44;;;;;;;16.67;10.90;;;9.90;99.90;;;;;;5097848;28;20039;-79
2023/03/20 09:01:10;;;;;;;19.70;10.90;;;10.00;99.90;;;;;;5082884;28;20093;-79
2023/03/20 09:03:36;;;;;;;18.92;11.23;;;10.00;99.90;;;;;;5095165;28;20050;-79
2023/03/20 09:06:05;;;;;;;18.73;11.55;;;10.10;99.90;;;;;;5124863;27;20047;-79
2023/03/20 09:08:31;;;;;;;18.80;10.80;;;10.20;99.90;;;;;;5110862;28;20118;-78
2023/03/20 09:10:57;;;;;;;18.13;11.00;;;10.40;99.90;;;;;;5121368;28;20470;-79
2023/03/20 09:13:24;;;;;;;18.95;10.68;;;10.50;99.90;;;;;;5126778;28;20095;-79
2023/03/20 09:15:50;;;;;;;20.25;11.60;;;10.60;99.90;;;;;;5088326;28;20051;-78
2023/03/20 09:18:18;;;;;;;18.90;11.05;;;10.60;99.90;;;;;;5022424;28;20560;-78
2023/03/20 09:20:44;;;;;;;19.08;11.38;;;10.70;99.90;;;;;;5040325;28;20044;-77
2023/03/20 09:23:10;;;;;;;18.27;11.18;;;10.60;99.90;;;;;;5055844;28;20047;-78
2023/03/20 09:25:36;;;;;;;18.05;11.02;;;10.70;99.90;;;;;;5071338;28;20040;-78
2023/03/20 09:28:01;;;;;;;16.92;10.35;;;10.60;99.90;;;;;;5054925;28;20056;-78
2023/03/20 09:30:27;;;;;;;18.08;10.77;;;10.60;99.90;;;;;;5071110;28;20051;-79
2023/03/20 09:32:53;;;;;;;19.20;11.80;;;10.60;99.90;;;;;;5053580;28;20123;-79
2023/03/20 09:35:19;;;;;;;18.63;10.85;;;10.60;99.90;;;;;;5056733;28;20498;-79
2023/03/20 09:37:45;;;;;;;15.98;10.38;;;10.70;99.90;;;;;;5072063;28;20044;-78
2023/03/20 09:40:28;;;;;;;16.30;10.43;;;10.70;99.90;;;;;;5070033;28;20032;-79
2023/03/20 09:43:04;;;;;;;17.33;10.85;;;10.60;99.90;;;;;;5069167;28;20043;-80
2023/03/20 09:45:41;;;;;;;18.88;10.95;;;10.70;99.90;;;;;;5075120;28;20064;-79
2023/03/20 09:48:26;;;;;;;18.85;11.25;;;10.80;99.90;;;;;;5070578;28;20040;-79
2023/03/20 09:51:14;;;;;;;17.15;9.60;;;11.00;99.90;;;;;;5070375;28;20083;-79
2023/03/20 09:53:46;;;;;;;16.88;10.10;;;11.40;99.90;;;;;;5072079;28;20517;-76
2023/03/20 09:56:22;;;;;;;16.10;10.35;;;11.60;99.90;;;;;;5070408;28;20128;-77
2023/03/20 09:58:56;;;;;;;17.42;9.27;;;11.70;99.90;;;;;;5055119;28;20484;-78
2023/03/20 10:01:51;;;;;;;17.95;10.00;;;11.80;99.90;;;;;;5068827;28;20036;-78
2023/03/20 10:04:18;;;;;;;14.27;9.43;;;11.90;99.90;;;;;;5072901;28;20051;-77
2023/03/20 10:06:44;;;;;;;15.70;9.43;;;11.90;99.90;;;;;;5083441;28;20131;-79
2023/03/20 10:09:23;;;;;;;14.48;8.70;;;11.90;99.90;;;;;;5073211;28;20231;-78
2023/03/20 10:12:20;;;;;;;15.63;9.20;;;11.90;99.90;;;;;;5086878;28;20098;-79
2023/03/20 10:14:52;;;;;;;13.75;9.00;;;12.00;99.90;;;;;;5072067;28;20053;-79
2023/03/20 10:17:25;;;;;;;;;;;12.00;99.90;;;;;;5072692;28;20101;-78
2023/03/20 10:20:10;;;;;;;15.15;9.55;;;12.00;99.90;;;;;;5088872;28;19916;-78
2023/03/20 10:22:50;;;;;;;16.42;10.07;;;12.10;99.90;;;;;;5068301;28;20044;-80
2023/03/20 10:25:36;;;;;;;14.95;9.07;;;12.00;99.90;;;;;;5052437;28;20047;-79
2023/03/20 10:28:13;;;;;;;15.52;9.05;;;12.10;99.90;;;;;;5085411;28;20091;-78
2023/03/20 10:31:16;;;;;;;15.25;9.35;;;12.10;99.90;;;;;;5085077;28;20044;-79
2023/03/20 10:34:06;;;;;;;16.50;8.68;;;12.00;99.90;;;;;;5067670;28;20044;-78
2023/03/20 10:36:49;;;;;;;16.05;8.95;;;12.10;99.90;;;;;;5063372;28;20048;-79
2023/03/20 10:39:34;;;;;;;17.52;8.80;;;12.10;99.90;;;;;;5070525;28;20475;-79
2023/03/20 10:42:03;;;;;;;15.25;8.68;;;12.10;99.90;;;;;;5065717;28;20041;-78
2023/03/20 10:44:35;;;;;;;14.07;8.52;;;12.10;99.90;;;;;;5075923;28;20041;-78
2023/03/20 10:47:02;;;;;;;;;;;12.20;99.90;;;;;;5069106;28;20048;-79
2023/03/20 10:49:39;;;;;;;14.25;8.82;;;12.20;99.90;;;;;;5070387;28;19920;-78
2023/03/20 10:52:21;;;;;;;15.73;8.25;;;12.30;99.90;;;;;;5070895;28;20040;-77
2023/03/20 10:55:15;;;;;;;13.85;8.35;;;12.40;99.90;;;;;;5086022;28;20032;-78
2023/03/20 10:57:47;;;;;;;16.13;8.38;;;12.30;99.90;;;;;;5071707;28;20048;-76
2023/03/20 11:00:21;;;;;;;13.75;7.80;;;12.20;99.90;;;;;;5076150;28;20036;-78
2023/03/20 11:02:47;;;;;;;16.10;8.60;;;12.10;99.90;;;;;;5065748;28;20051;-78
2023/03/20 11:05:24;;;;;;;16.38;8.50;;;12.00;99.90;;;;;;5076556;28;20047;-76
2023/03/20 11:08:00;;;;;;;16.33;8.73;;;11.90;99.90;;;;;;5069463;28;20052;-78
2023/03/20 11:10:27;;;;;;;17.23;8.98;;;11.80;99.90;;;;;;5070230;28;20995;-79
2023/03/20 11:12:52;;;;;;;15.32;8.68;;;11.60;99.90;;;;;;5087191;28;20082;-78
2023/03/20 11:15:23;;;;;;;16.13;9.32;;;11.60;99.90;;;;;;5071103;28;20036;-79
2023/03/20 11:17:53;;;;;;;16.98;9.73;;;11.50;99.90;;;;;;5062539;28;20052;-78
2023/03/20 11:20:20;;;;;;;15.15;9.18;;;11.30;99.90;;;;;;5067257;28;20067;-79
2023/03/20 11:22:47;;;;;;;15.85;9.82;;;11.30;99.90;;;;;;5053955;28;20041;-77
2023/03/20 11:25:29;;;;;;;14.82;8.65;;;11.10;99.90;;;;;;5071661;28;20072;-78
2023/03/20 11:27:56;;;;;;;15.95;8.00;;;11.10;99.90;;;;;;5087489;28;20380;-78
2023/03/20 11:30:23;;;;;;;16.77;7.70;;;11.10;99.90;;;;;;5069702;28;20052;-79
2023/03/20 11:32:55;;;;;;;15.48;7.60;;;10.90;99.90;;;;;;5068901;28;20052;-79
2023/03/20 11:35:27;;;;;;;;;;;11.00;99.90;;;;;;5069716;28;20120;-79
2023/03/20 11:37:55;;;;;;;12.57;6.57;;;10.90;99.90;;;;;;5070436;28;19928;-76
2023/03/20 11:40:30;;;;;;;13.25;6.88;;;10.90;99.90;;;;;;5066969;28;20044;-79
2023/03/20 11:43:03;;;;;;;12.07;6.63;;;10.80;99.90;;;;;;5065668;28;20040;-79
2023/03/20 11:45:38;;;;;;;14.82;7.00;;;10.70;99.90;;;;;;5067708;28;20045;-79
2023/03/20 11:48:05;;;;;;;14.18;6.97;;;10.70;99.90;;;;;;5069856;28;20047;-78
2023/03/20 11:50:36;;;;;;;14.02;6.82;;;10.70;99.90;;;;;;5068572;28;20055;-78
2023/03/20 11:53:16;;;;;;;12.95;6.60;;;10.70;99.90;;;;;;5079406;28;20472;-79
2023/03/20 11:55:56;;;;;;;12.90;6.90;;;10.70;99.90;;;;;;5052793;28;20123;-78
2023/03/20 11:58:21;;;;;;;13.25;6.40;;;10.80;99.90;;;;;;5069411;28;20040;-79
2023/03/20 12:00:53;;;;;;;15.43;6.32;;;10.90;99.90;;;;;;5068010;28;20040;-78
2023/03/20 12:03:37;;;;;;;11.67;5.97;;;10.90;99.90;;;;;;5063753;28;20063;-79
2023/03/20 12:06:06;;;;;;;11.95;5.72;;;10.80;99.90;;;;;;5066923;28;20109;-78
2023/03/20 12:08:35;;;;;;;12.27;5.93;;;10.80;99.90;;;;;;5077492;28;20056;-78
2023/03/20 12:11:23;;;;;;;13.82;6.07;;;10.70;99.90;;;;;;5064915;28;20060;-78
2023/03/20 12:13:50;;;;;;;14.00;6.13;;;10.60;99.90;;;;;;5066078;28;20040;-79
2023/03/20 12:16:20;;;;;;;11.77;6.10;;;10.50;99.90;;;;;;5052614;28;20068;-78
2023/03/20 12:18:51;;;;;;;14.75;6.32;;;10.50;99.90;;;;;;5065173;28;20048;-79
2023/03/20 12:21:26;;;;;;;15.17;6.47;;;10.40;99.90;;;;;;5062846;28;20123;-79
2023/03/20 12:24:04;;;;;;;13.52;6.60;;;10.30;99.90;;;;;;5075517;28;20040;-78
2023/03/20 12:26:40;;;;;;;14.75;7.22;;;10.30;99.90;;;;;;5052066;28;20079;-79
2023/03/20 12:29:58;;;;;;;14.98;7.63;;;10.30;99.90;;;;;;5071502;28;20044;-79
2023/03/20 12:32:36;;;;;;;12.25;7.43;;;10.30;99.90;;;;;;5060500;28;20050;-79
2023/03/20 12:35:26;;;;;;;13.00;6.85;;;10.30;99.90;;;;;;5052999;28;20044;-77
2023/03/20 12:37:52;;;;;;;12.48;6.90;;;10.40;99.90;;;;;;5078692;28;20377;-77
2023/03/20 12:40:24;;;;;;;14.43;7.05;;;10.40;99.90;;;;;;5068852;28;20492;-77
2023/03/20 12:43:14;;;;;;;16.10;7.50;;;10.40;99.90;;;;;;5080172;28;20319;-78
2023/03/20 12:45:45;;;;;;;16.02;7.40;;;10.40;99.90;;;;;;5075331;28;20052;-79
2023/03/20 12:48:40;;;;;;;13.60;7.50;;;10.50;99.90;;;;;;5080050;28;20037;-78
2023/03/20 12:51:23;;;;;;;14.75;7.18;;;10.50;99.90;;;;;;5068617;28;20052;-78
2023/03/20 12:53:59;;;;;;;11.38;6.43;;;10.50;99.90;;;;;;5067796;28;20041;-79
2023/03/20 12:56:30;;;;;;;13.18;5.70;;;10.50;99.90;;;;;;5069684;28;20047;-78
2023/03/20 12:59:05;;;;;;;12.35;5.10;;;10.40;99.90;;;;;;5075421;28;20054;-75